createdAt,value
2023-05-18T00:00:05.603Z,45.38
2023-05-18T00:00:37.041Z,45.43
2023-05-18T00:01:08.476Z,45.73
2023-05-18T00:01:39.972Z,45.21
2023-05-18T00:02:11.481Z,45.55
2023-05-18T00:02:43.018Z,45.12
2023-05-18T00:03:14.713Z,45.68
2023-05-18T00:03:46.302Z,45.06
2023-05-18T00:04:17.808Z,45.26
2023-05-18T00:04:49.271Z,45.16
2023-05-18T00:05:20.775Z,45.32
2023-05-18T00:05:52.204Z,45.40
2023-05-18T00:06:23.889Z,45.11
2023-05-18T00:06:55.318Z,45.72
2023-05-18T00:07:26.754Z,45.61
2023-05-18T00:07:58.204Z,45.24
2023-05-18T00:08:29.640Z,45.31
2023-05-18T00:09:01.079Z,45.54
2023-05-18T00:09:32.511Z,45.73
2023-05-18T00:10:04.046Z,45.08
2023-05-18T00:10:35.603Z,45.33
2023-05-18T00:11:07.094Z,44.93
2023-05-18T00:11:38.539Z,45.25
2023-05-18T00:12:09.995Z,45.66
2023-05-18T00:12:41.476Z,45.33
2023-05-18T00:13:12.919Z,45.55
2023-05-18T00:13:44.359Z,45.41
2023-05-18T00:14:15.801Z,45.38
2023-05-18T00:14:47.244Z,45.72
2023-05-18T00:15:18.772Z,45.29
2023-05-18T00:15:50.209Z,45.80
2023-05-18T00:16:21.709Z,45.28
2023-05-18T00:16:53.189Z,45.65
2023-05-18T00:17:24.669Z,45.51
2023-05-18T00:17:56.187Z,45.47
2023-05-18T00:18:27.659Z,45.61
2023-05-18T00:18:59.138Z,45.69
2023-05-18T00:19:30.619Z,45.23
2023-05-18T00:20:02.102Z,45.28
2023-05-18T00:20:33.577Z,45.72
2023-05-18T00:21:05.004Z,45.71
2023-05-18T00:21:36.442Z,45.66
2023-05-18T00:22:07.994Z,45.69
2023-05-18T00:22:39.495Z,45.42
2023-05-18T00:23:10.949Z,45.48
2023-05-18T00:23:42.382Z,45.40
2023-05-18T00:24:13.809Z,45.56
2023-05-18T00:24:45.245Z,45.58
2023-05-18T00:25:16.678Z,45.56
2023-05-18T00:25:48.155Z,45.73
2023-05-18T00:26:19.587Z,45.31
2023-05-18T00:26:51.034Z,45.57
2023-05-18T00:27:22.474Z,45.56
2023-05-18T00:27:53.931Z,45.32
2023-05-18T00:28:25.370Z,45.58
2023-05-18T00:28:56.820Z,45.56
2023-05-18T00:29:28.254Z,45.84
2023-05-18T00:29:59.689Z,45.52
2023-05-18T00:30:31.119Z,45.83
2023-05-18T00:31:02.571Z,45.51
2023-05-18T00:31:34.025Z,45.40
2023-05-18T00:32:05.528Z,45.59
2023-05-18T00:32:37.070Z,45.61
2023-05-18T00:33:08.706Z,45.40
2023-05-18T00:33:40.183Z,45.39
2023-05-18T00:34:11.617Z,45.84
2023-05-18T00:34:43.057Z,45.65
2023-05-18T00:35:14.505Z,45.61
2023-05-18T00:35:45.965Z,45.36
2023-05-18T00:36:17.425Z,45.59
2023-05-18T00:36:48.873Z,45.80
2023-05-18T00:37:20.306Z,45.62
2023-05-18T00:37:51.741Z,45.46
2023-05-18T00:38:23.184Z,45.25
2023-05-18T00:38:54.657Z,45.37
2023-05-18T00:39:26.085Z,45.68
2023-05-18T00:39:57.548Z,45.63
2023-05-18T00:40:29.020Z,45.36
2023-05-18T00:41:00.478Z,45.67
2023-05-18T00:41:31.910Z,45.40
2023-05-18T00:42:03.338Z,45.56
2023-05-18T00:42:34.812Z,45.92
2023-05-18T00:43:06.262Z,45.73
2023-05-18T00:43:37.706Z,45.91
2023-05-18T00:44:09.156Z,46.04
2023-05-18T00:44:40.594Z,45.83
2023-05-18T00:45:12.044Z,45.32
2023-05-18T00:45:43.522Z,45.74
2023-05-18T00:46:15.005Z,46.02
2023-05-18T00:46:46.467Z,45.64
2023-05-18T00:47:17.928Z,45.52
2023-05-18T00:47:49.417Z,45.92
2023-05-18T00:48:20.936Z,45.89
2023-05-18T00:48:52.434Z,45.82
2023-05-18T00:49:23.900Z,45.99
2023-05-18T00:49:55.339Z,45.78
2023-05-18T00:50:26.785Z,45.61
2023-05-18T00:50:58.213Z,45.51
2023-05-18T00:51:29.643Z,45.47
2023-05-18T00:52:01.109Z,45.64
2023-05-18T00:52:32.563Z,45.71
2023-05-18T00:53:04.012Z,45.41
2023-05-18T00:53:35.441Z,45.67
2023-05-18T00:54:06.870Z,45.53
2023-05-18T00:54:38.340Z,45.71
2023-05-18T00:55:09.781Z,45.99
2023-05-18T00:55:41.322Z,46.06
2023-05-18T00:56:12.800Z,45.72
2023-05-18T00:56:44.237Z,45.93
2023-05-18T00:57:15.724Z,45.91
2023-05-18T00:57:47.160Z,45.91
2023-05-18T00:58:18.680Z,45.72
2023-05-18T00:58:50.124Z,46.45
2023-05-18T00:59:21.572Z,45.71
2023-05-18T00:59:53.023Z,45.89
2023-05-18T01:00:24.594Z,45.97
2023-05-18T01:00:56.133Z,46.19
2023-05-18T01:01:27.674Z,45.91
2023-05-18T01:01:59.337Z,45.90
2023-05-18T01:02:30.939Z,46.12
2023-05-18T01:03:02.504Z,45.45
2023-05-18T01:03:34.020Z,46.03
2023-05-18T01:04:05.497Z,45.80
2023-05-18T01:04:36.940Z,45.88
2023-05-18T01:05:08.395Z,46.05
2023-05-18T01:05:39.822Z,45.81
2023-05-18T01:06:11.258Z,45.80
2023-05-18T01:06:42.747Z,45.56
2023-05-18T01:07:14.185Z,45.74
2023-05-18T01:07:45.632Z,46.14
2023-05-18T01:08:17.076Z,45.56
2023-05-18T01:08:48.535Z,45.64
2023-05-18T01:09:19.995Z,46.16
2023-05-18T01:09:51.431Z,46.17
2023-05-18T01:10:22.920Z,45.59
2023-05-18T01:10:54.375Z,45.90
2023-05-18T01:11:25.862Z,45.76
2023-05-18T01:11:57.368Z,46.16
2023-05-18T01:12:28.821Z,46.21
2023-05-18T01:13:00.249Z,46.07
2023-05-18T01:13:31.688Z,46.11
2023-05-18T01:14:03.136Z,46.14
2023-05-18T01:14:34.570Z,45.74
2023-05-18T01:15:05.990Z,46.06
2023-05-18T01:15:37.482Z,46.35
2023-05-18T01:16:08.920Z,46.13
2023-05-18T01:16:40.407Z,45.86
2023-05-18T01:17:12.053Z,46.32
2023-05-18T01:17:43.666Z,45.93
2023-05-18T01:18:15.188Z,46.16
2023-05-18T01:18:46.721Z,45.72
2023-05-18T01:19:18.294Z,45.96
2023-05-18T01:19:49.825Z,45.87
2023-05-18T01:20:21.276Z,45.89
2023-05-18T01:20:52.715Z,46.08
2023-05-18T01:21:24.147Z,45.94
2023-05-18T01:21:55.601Z,46.15
2023-05-18T01:22:27.075Z,45.95
2023-05-18T01:22:58.519Z,45.74
2023-05-18T01:23:30.063Z,45.71
2023-05-18T01:24:01.527Z,45.80
2023-05-18T01:24:32.970Z,46.21
2023-05-18T01:25:04.402Z,45.88
2023-05-18T01:25:35.844Z,45.78
2023-05-18T01:26:07.282Z,46.07
2023-05-18T01:26:38.716Z,45.67
2023-05-18T01:27:10.147Z,46.13
2023-05-18T01:27:41.610Z,46.17
2023-05-18T01:28:13.081Z,45.83
2023-05-18T01:28:44.516Z,45.70
2023-05-18T01:29:15.954Z,45.74
2023-05-18T01:29:47.397Z,46.13
2023-05-18T01:30:18.827Z,46.12
2023-05-18T01:30:50.331Z,46.01
2023-05-18T01:31:21.824Z,46.04
2023-05-18T01:31:53.355Z,46.01
2023-05-18T01:32:24.859Z,46.06
2023-05-18T01:32:56.360Z,46.17
2023-05-18T01:33:27.862Z,46.23
2023-05-18T01:33:59.288Z,46.21
2023-05-18T01:34:30.748Z,46.13
2023-05-18T01:35:02.200Z,45.63
2023-05-18T01:35:33.652Z,45.88
2023-05-18T01:36:05.103Z,46.14
2023-05-18T01:36:36.547Z,45.98
2023-05-18T01:37:07.986Z,46.21
2023-05-18T01:37:39.432Z,46.29
2023-05-18T01:38:10.891Z,46.03
2023-05-18T01:38:44.214Z,46.08
2023-05-18T01:39:15.930Z,46.28
2023-05-18T01:39:47.372Z,45.89
2023-05-18T01:40:18.822Z,45.89
2023-05-18T01:40:50.271Z,46.04
2023-05-18T01:41:21.713Z,46.37
2023-05-18T01:41:53.160Z,46.16
2023-05-18T01:42:24.607Z,46.19
2023-05-18T01:42:56.055Z,46.29
2023-05-18T01:43:27.546Z,45.99
2023-05-18T01:43:58.986Z,45.81
2023-05-18T01:44:30.430Z,46.52
2023-05-18T01:45:01.870Z,46.13
2023-05-18T01:45:33.330Z,45.88
2023-05-18T01:46:04.846Z,46.18
2023-05-18T01:46:36.412Z,46.10
2023-05-18T01:47:07.894Z,46.12
2023-05-18T01:47:39.410Z,46.27
2023-05-18T01:48:10.997Z,46.31
2023-05-18T01:48:42.517Z,46.17
2023-05-18T01:49:13.975Z,45.71
2023-05-18T01:49:45.428Z,46.02
2023-05-18T01:50:16.862Z,46.08
2023-05-18T01:50:48.302Z,46.12
2023-05-18T01:51:19.749Z,46.39
2023-05-18T01:51:51.242Z,46.14
2023-05-18T01:52:22.676Z,46.51
2023-05-18T01:52:54.122Z,45.92
2023-05-18T01:53:25.564Z,46.11
2023-05-18T01:53:57.034Z,46.15
2023-05-18T01:54:28.472Z,46.30
2023-05-18T01:54:59.915Z,46.41
2023-05-18T01:55:31.634Z,46.24
2023-05-18T01:56:03.259Z,46.17
2023-05-18T01:56:34.703Z,46.13
2023-05-18T01:57:06.629Z,46.09
2023-05-18T01:57:38.095Z,45.89
2023-05-18T01:58:09.569Z,46.04
2023-05-18T01:58:41.020Z,46.24
2023-05-18T01:59:12.555Z,46.43
2023-05-18T01:59:43.995Z,46.47
2023-05-18T02:00:15.430Z,46.47
2023-05-18T02:00:46.867Z,45.97
2023-05-18T02:01:18.306Z,46.18
2023-05-18T02:01:49.840Z,45.87
2023-05-18T02:02:21.409Z,46.18
2023-05-18T02:02:53.094Z,45.93
2023-05-18T02:03:24.749Z,46.16
2023-05-18T02:03:56.326Z,45.82
2023-05-18T02:04:27.861Z,46.12
2023-05-18T02:04:59.302Z,45.87
2023-05-18T02:05:30.908Z,46.08
2023-05-18T02:06:02.548Z,46.35
2023-05-18T02:06:34.003Z,46.45
2023-05-18T02:07:05.460Z,46.17
2023-05-18T02:07:36.903Z,46.57
2023-05-18T02:08:08.349Z,46.54
2023-05-18T02:08:39.779Z,46.18
2023-05-18T02:09:11.223Z,46.16
2023-05-18T02:09:42.684Z,46.10
2023-05-18T02:10:14.125Z,46.24
2023-05-18T02:10:45.570Z,45.93
2023-05-18T02:11:17.000Z,45.93
2023-05-18T02:11:48.439Z,46.35
2023-05-18T02:12:19.881Z,46.49
2023-05-18T02:12:51.418Z,46.18
2023-05-18T02:13:22.892Z,46.21
2023-05-18T02:13:54.361Z,46.16
2023-05-18T02:14:25.824Z,45.96
2023-05-18T02:14:57.260Z,46.03
2023-05-18T02:15:29.155Z,46.31
2023-05-18T02:16:00.809Z,45.95
2023-05-18T02:16:32.363Z,46.01
2023-05-18T02:17:03.861Z,46.36
2023-05-18T02:17:35.326Z,46.18
2023-05-18T02:18:06.837Z,46.06
2023-05-18T02:18:38.306Z,46.21
2023-05-18T02:19:09.811Z,46.09
2023-05-18T02:19:41.281Z,46.10
2023-05-18T02:20:12.721Z,46.34
2023-05-18T02:20:44.188Z,46.06
2023-05-18T02:21:15.621Z,46.37
2023-05-18T02:21:47.062Z,45.97
2023-05-18T02:22:18.490Z,46.27
2023-05-18T02:22:50.444Z,46.05
2023-05-18T02:23:21.879Z,46.54
2023-05-18T02:23:53.309Z,46.51
2023-05-18T02:24:24.766Z,46.22
2023-05-18T02:24:56.213Z,46.66
2023-05-18T02:25:27.843Z,46.42
2023-05-18T02:25:59.337Z,46.41
2023-05-18T02:26:30.773Z,46.11
2023-05-18T02:27:02.251Z,46.35
2023-05-18T02:27:33.701Z,46.21
2023-05-18T02:28:05.158Z,46.32
2023-05-18T02:28:36.594Z,46.32
2023-05-18T02:29:08.017Z,46.07
2023-05-18T02:29:39.460Z,45.61
2023-05-18T02:30:11.951Z,46.07
2023-05-18T02:30:45.260Z,46.22
2023-05-18T02:31:16.703Z,46.13
2023-05-18T02:31:48.246Z,46.30
2023-05-18T02:32:19.717Z,46.60
2023-05-18T02:32:51.210Z,46.32
2023-05-18T02:33:22.672Z,46.40
2023-05-18T02:33:54.129Z,46.54
2023-05-18T02:34:25.578Z,45.97
2023-05-18T02:34:57.036Z,46.24
2023-05-18T02:35:28.631Z,46.49
2023-05-18T02:36:00.261Z,46.36
2023-05-18T02:36:31.719Z,46.21
2023-05-18T02:37:03.164Z,46.04
2023-05-18T02:37:34.614Z,46.22
2023-05-18T02:38:06.135Z,46.49
2023-05-18T02:38:37.586Z,46.36
2023-05-18T02:39:09.027Z,46.37
2023-05-18T02:39:40.466Z,46.49
2023-05-18T02:40:11.902Z,46.04
2023-05-18T02:40:43.378Z,46.48
2023-05-18T02:41:14.818Z,45.95
2023-05-18T02:41:46.324Z,46.10
2023-05-18T02:42:17.749Z,46.07
2023-05-18T02:42:49.194Z,46.08
2023-05-18T02:43:20.618Z,46.50
2023-05-18T02:43:52.073Z,46.37
2023-05-18T02:44:23.508Z,46.21
2023-05-18T02:44:54.940Z,46.21
2023-05-18T02:45:26.436Z,46.44
2023-05-18T02:45:57.945Z,46.03
2023-05-18T02:46:29.506Z,46.17
2023-05-18T02:47:01.052Z,45.90
2023-05-18T02:47:32.519Z,46.23
2023-05-18T02:48:03.989Z,46.52
2023-05-18T02:48:35.524Z,46.15
2023-05-18T02:49:06.980Z,46.20
2023-05-18T02:49:38.427Z,46.42
2023-05-18T02:50:09.866Z,46.36
2023-05-18T02:50:41.334Z,46.37
2023-05-18T02:51:12.773Z,45.91
2023-05-18T02:51:44.229Z,46.16
2023-05-18T02:52:15.678Z,45.90
2023-05-18T02:52:47.108Z,45.97
2023-05-18T02:53:18.537Z,46.31
2023-05-18T02:53:49.979Z,46.48
2023-05-18T02:54:21.414Z,46.12
2023-05-18T02:54:52.852Z,46.26
2023-05-18T02:55:24.298Z,46.49
2023-05-18T02:55:55.765Z,45.99
2023-05-18T02:56:27.208Z,46.10
2023-05-18T02:56:58.648Z,46.52
2023-05-18T02:57:30.083Z,46.13
2023-05-18T02:58:01.528Z,46.26
2023-05-18T02:58:32.986Z,46.24
2023-05-18T02:59:05.141Z,46.37
2023-05-18T02:59:38.134Z,46.22
2023-05-18T03:00:09.579Z,46.13
2023-05-18T03:00:41.004Z,45.91
2023-05-18T03:01:12.565Z,45.89
2023-05-18T03:01:44.272Z,46.44
2023-05-18T03:02:15.810Z,46.11
2023-05-18T03:02:47.335Z,46.08
2023-05-18T03:03:19.000Z,46.46
2023-05-18T03:03:50.564Z,46.11
2023-05-18T03:04:22.016Z,45.89
2023-05-18T03:04:53.506Z,45.93
2023-05-18T03:05:24.949Z,46.25
2023-05-18T03:05:56.394Z,45.99
2023-05-18T03:06:27.829Z,45.98
2023-05-18T03:06:59.335Z,46.17
2023-05-18T03:07:30.774Z,46.48
2023-05-18T03:08:02.217Z,46.42
2023-05-18T03:08:33.724Z,46.47
2023-05-18T03:09:05.173Z,46.02
2023-05-18T03:09:36.647Z,46.23
2023-05-18T03:10:08.115Z,46.32
2023-05-18T03:10:39.591Z,46.51
2023-05-18T03:11:11.069Z,46.47
2023-05-18T03:11:42.521Z,45.97
2023-05-18T03:12:13.964Z,46.13
2023-05-18T03:12:45.411Z,46.04
2023-05-18T03:13:16.849Z,46.41
2023-05-18T03:13:48.282Z,46.61
2023-05-18T03:14:19.718Z,46.08
2023-05-18T03:14:51.156Z,46.32
2023-05-18T03:15:22.593Z,46.05
2023-05-18T03:15:54.058Z,46.32
2023-05-18T03:16:25.530Z,46.43
2023-05-18T03:16:56.996Z,46.05
2023-05-18T03:17:28.492Z,46.05
2023-05-18T03:18:00.030Z,45.95
2023-05-18T03:18:31.532Z,46.33
2023-05-18T03:19:03.045Z,46.57
2023-05-18T03:19:34.529Z,46.46
2023-05-18T03:20:05.963Z,46.10
2023-05-18T03:20:37.394Z,46.48
2023-05-18T03:21:08.877Z,46.19
2023-05-18T03:21:40.317Z,46.38
2023-05-18T03:22:11.758Z,46.26
2023-05-18T03:22:43.205Z,46.05
2023-05-18T03:23:14.647Z,46.62
2023-05-18T03:23:46.095Z,46.09
2023-05-18T03:24:17.521Z,46.38
2023-05-18T03:24:48.965Z,46.37
2023-05-18T03:25:20.397Z,46.65
2023-05-18T03:25:51.827Z,45.83
2023-05-18T03:26:23.295Z,46.09
2023-05-18T03:26:54.738Z,46.62
2023-05-18T03:27:26.182Z,46.43
2023-05-18T03:27:57.622Z,46.47
2023-05-18T03:28:29.051Z,46.37
2023-05-18T03:29:00.490Z,45.92
2023-05-18T03:29:31.937Z,46.48
2023-05-18T03:30:03.401Z,46.29
2023-05-18T03:30:34.838Z,46.44
2023-05-18T03:31:06.396Z,46.35
2023-05-18T03:31:38.013Z,46.54
2023-05-18T03:32:09.582Z,45.97
2023-05-18T03:32:41.056Z,46.12
2023-05-18T03:33:12.641Z,46.33
2023-05-18T03:33:44.100Z,46.35
2023-05-18T03:34:15.537Z,46.15
2023-05-18T03:34:46.978Z,46.04
2023-05-18T03:35:18.418Z,46.48
2023-05-18T03:35:49.879Z,45.94
2023-05-18T03:36:21.351Z,45.92
2023-05-18T03:36:52.782Z,46.07
2023-05-18T03:37:24.212Z,45.92
2023-05-18T03:37:55.667Z,46.46
2023-05-18T03:38:27.133Z,46.23
2023-05-18T03:38:58.572Z,46.37
2023-05-18T03:39:30.018Z,46.17
2023-05-18T03:40:01.515Z,46.43
2023-05-18T03:40:32.959Z,46.16
2023-05-18T03:41:04.404Z,46.50
2023-05-18T03:41:35.896Z,46.11
2023-05-18T03:42:07.342Z,46.47
2023-05-18T03:42:38.787Z,45.99
2023-05-18T03:43:10.227Z,46.33
2023-05-18T03:43:41.662Z,45.96
2023-05-18T03:44:13.113Z,46.18
2023-05-18T03:44:44.554Z,46.22
2023-05-18T03:45:16.018Z,46.50
2023-05-18T03:45:47.500Z,45.89
2023-05-18T03:46:18.973Z,45.97
2023-05-18T03:46:50.534Z,46.22
2023-05-18T03:47:21.983Z,46.37
2023-05-18T03:47:53.520Z,46.36
2023-05-18T03:48:25.022Z,46.35
2023-05-18T03:48:56.460Z,46.52
2023-05-18T03:49:27.905Z,46.29
2023-05-18T03:49:59.356Z,46.15
2023-05-18T03:50:30.801Z,46.19
2023-05-18T03:51:02.270Z,46.24
2023-05-18T03:51:33.709Z,46.46
2023-05-18T03:52:05.155Z,46.13
2023-05-18T03:52:36.632Z,46.14
2023-05-18T03:53:08.067Z,46.11
2023-05-18T03:53:39.498Z,45.99
2023-05-18T03:54:10.937Z,46.31
2023-05-18T03:54:42.380Z,46.14
2023-05-18T03:55:13.865Z,46.17
2023-05-18T03:55:45.302Z,46.39
2023-05-18T03:56:16.753Z,46.48
2023-05-18T03:56:48.199Z,46.56
2023-05-18T03:57:19.638Z,46.16
2023-05-18T03:57:51.076Z,46.12
2023-05-18T03:58:22.528Z,46.15
2023-05-18T03:58:53.958Z,46.29
2023-05-18T03:59:25.401Z,46.24
2023-05-18T03:59:56.867Z,46.44
2023-05-18T04:00:28.342Z,46.31
2023-05-18T04:00:59.774Z,46.45
2023-05-18T04:01:31.244Z,46.28
2023-05-18T04:02:02.795Z,46.34
2023-05-18T04:02:34.424Z,46.20
2023-05-18T04:03:06.070Z,46.06
2023-05-18T04:03:37.738Z,46.25
2023-05-18T04:04:09.291Z,46.35
2023-05-18T04:04:40.761Z,46.56
2023-05-18T04:05:12.194Z,46.71
2023-05-18T04:05:43.660Z,46.54
2023-05-18T04:06:15.090Z,46.24
2023-05-18T04:06:46.512Z,46.02
2023-05-18T04:07:17.937Z,45.99
2023-05-18T04:07:49.375Z,46.41
2023-05-18T04:08:20.826Z,46.39
2023-05-18T04:08:52.258Z,46.16
2023-05-18T04:09:23.718Z,46.34
2023-05-18T04:09:55.170Z,46.37
2023-05-18T04:10:26.617Z,46.22
2023-05-18T04:10:58.112Z,46.51
2023-05-18T04:11:29.535Z,46.31
2023-05-18T04:12:00.961Z,46.25
2023-05-18T04:12:32.394Z,46.05
2023-05-18T04:13:03.851Z,45.99
2023-05-18T04:13:35.300Z,46.46
2023-05-18T04:14:06.729Z,46.26
2023-05-18T04:14:38.156Z,46.30
2023-05-18T04:15:09.596Z,46.31
2023-05-18T04:15:41.028Z,46.58
2023-05-18T04:16:12.565Z,46.34
2023-05-18T04:16:44.069Z,46.42
2023-05-18T04:17:15.550Z,46.22
2023-05-18T04:17:47.031Z,46.35
2023-05-18T04:18:18.483Z,46.30
2023-05-18T04:18:49.961Z,46.40
2023-05-18T04:19:21.487Z,46.18
2023-05-18T04:19:52.963Z,46.39
2023-05-18T04:20:24.408Z,45.94
2023-05-18T04:20:55.842Z,46.54
2023-05-18T04:21:27.294Z,45.99
2023-05-18T04:21:58.771Z,45.97
2023-05-18T04:22:30.202Z,46.46
2023-05-18T04:23:01.639Z,46.37
2023-05-18T04:23:33.101Z,46.03
2023-05-18T04:24:04.549Z,45.97
2023-05-18T04:24:35.986Z,46.01
2023-05-18T04:25:07.422Z,46.46
2023-05-18T04:25:38.862Z,46.37
2023-05-18T04:26:10.297Z,46.01
2023-05-18T04:26:41.747Z,46.33
2023-05-18T04:27:13.182Z,46.07
2023-05-18T04:27:44.631Z,45.83
2023-05-18T04:28:16.066Z,46.24
2023-05-18T04:28:47.523Z,46.18
2023-05-18T04:29:18.960Z,46.28
2023-05-18T04:29:50.417Z,46.28
2023-05-18T04:30:21.855Z,46.23
2023-05-18T04:30:53.298Z,46.39
2023-05-18T04:31:24.773Z,46.17
2023-05-18T04:31:56.264Z,46.59
2023-05-18T04:32:27.718Z,46.06
2023-05-18T04:32:59.214Z,45.91
2023-05-18T04:33:30.678Z,46.26
2023-05-18T04:34:02.135Z,46.18
2023-05-18T04:34:33.601Z,46.42
2023-05-18T04:35:05.040Z,46.58
2023-05-18T04:35:36.467Z,46.32
2023-05-18T04:36:07.916Z,46.13
2023-05-18T04:36:39.350Z,46.08
2023-05-18T04:37:10.782Z,46.00
2023-05-18T04:37:42.221Z,46.00
2023-05-18T04:38:13.696Z,46.21
2023-05-18T04:38:45.140Z,46.48
2023-05-18T04:39:16.568Z,46.25
2023-05-18T04:39:48.011Z,46.39
2023-05-18T04:40:19.486Z,46.15
2023-05-18T04:40:50.944Z,45.94
2023-05-18T04:41:22.376Z,45.98
2023-05-18T04:41:53.833Z,46.47
2023-05-18T04:42:25.275Z,46.14
2023-05-18T04:42:56.727Z,46.46
2023-05-18T04:43:28.185Z,46.16
2023-05-18T04:43:59.638Z,46.06
2023-05-18T04:44:31.093Z,46.39
2023-05-18T04:45:02.566Z,46.56
2023-05-18T04:45:34.164Z,46.45
2023-05-18T04:46:05.907Z,46.12
2023-05-18T04:46:37.351Z,46.54
2023-05-18T04:47:08.847Z,45.90
2023-05-18T04:47:40.308Z,46.03
2023-05-18T04:48:11.773Z,46.22
2023-05-18T04:48:43.272Z,46.28
2023-05-18T04:49:14.704Z,46.07
2023-05-18T04:49:46.249Z,46.02
2023-05-18T04:50:17.686Z,46.21
2023-05-18T04:50:49.132Z,46.13
2023-05-18T04:51:20.569Z,46.63
2023-05-18T04:51:51.998Z,46.05
2023-05-18T04:52:23.421Z,46.16
2023-05-18T04:52:54.864Z,46.46
2023-05-18T04:53:26.409Z,46.40
2023-05-18T04:53:57.854Z,46.47
2023-05-18T04:54:29.295Z,46.30
2023-05-18T04:55:00.751Z,45.95
2023-05-18T04:55:32.298Z,46.24
2023-05-18T04:56:03.850Z,46.33
2023-05-18T04:56:35.275Z,46.48
2023-05-18T04:57:06.743Z,46.50
2023-05-18T04:57:38.177Z,46.11
2023-05-18T04:58:09.617Z,46.13
2023-05-18T04:58:41.052Z,46.58
2023-05-18T04:59:12.481Z,46.31
2023-05-18T04:59:43.910Z,46.37
2023-05-18T05:00:15.372Z,46.67
2023-05-18T05:00:46.813Z,46.07
2023-05-18T05:01:18.326Z,46.48
2023-05-18T05:01:49.906Z,46.64
2023-05-18T05:02:21.513Z,46.41
2023-05-18T05:02:53.046Z,46.39
2023-05-18T05:03:24.623Z,46.33
2023-05-18T05:03:58.158Z,46.30
2023-05-18T05:04:31.079Z,46.70
2023-05-18T05:05:02.548Z,46.33
2023-05-18T05:05:33.979Z,46.37
2023-05-18T05:06:05.417Z,46.14
2023-05-18T05:06:36.860Z,46.37
2023-05-18T05:07:08.331Z,46.13
2023-05-18T05:07:39.806Z,46.54
2023-05-18T05:08:11.319Z,46.40
2023-05-18T05:08:42.757Z,46.28
2023-05-18T05:09:14.206Z,46.37
2023-05-18T05:09:45.664Z,46.70
2023-05-18T05:10:17.129Z,46.13
2023-05-18T05:10:48.574Z,46.51
2023-05-18T05:11:20.044Z,45.97
2023-05-18T05:11:51.469Z,46.11
2023-05-18T05:12:22.899Z,46.63
2023-05-18T05:12:54.333Z,46.34
2023-05-18T05:13:25.770Z,46.21
2023-05-18T05:13:57.206Z,46.51
2023-05-18T05:14:28.631Z,46.12
2023-05-18T05:15:00.070Z,46.50
2023-05-18T05:15:31.742Z,46.13
2023-05-18T05:16:03.457Z,46.16
2023-05-18T05:16:35.058Z,46.48
2023-05-18T05:17:06.546Z,46.23
2023-05-18T05:17:37.984Z,46.39
2023-05-18T05:18:09.509Z,46.13
2023-05-18T05:18:41.041Z,46.05
2023-05-18T05:19:12.676Z,45.97
2023-05-18T05:19:44.230Z,46.47
2023-05-18T05:20:15.695Z,46.19
2023-05-18T05:20:47.160Z,46.33
2023-05-18T05:21:18.625Z,46.46
2023-05-18T05:21:50.066Z,46.35
2023-05-18T05:22:21.511Z,46.58
2023-05-18T05:22:53.038Z,46.15
2023-05-18T05:23:24.543Z,46.45
2023-05-18T05:23:56.000Z,46.11
2023-05-18T05:24:27.437Z,46.37
2023-05-18T05:24:58.875Z,45.87
2023-05-18T05:25:30.561Z,46.29
2023-05-18T05:26:02.237Z,46.08
2023-05-18T05:26:33.712Z,46.19
2023-05-18T05:27:05.149Z,46.33
2023-05-18T05:27:36.583Z,46.59
2023-05-18T05:28:08.046Z,46.10
2023-05-18T05:28:39.499Z,46.66
2023-05-18T05:29:10.933Z,46.50
2023-05-18T05:29:42.363Z,46.28
2023-05-18T05:30:13.828Z,46.20
2023-05-18T05:30:45.274Z,46.57
2023-05-18T05:31:16.756Z,46.36
2023-05-18T05:31:48.301Z,45.96
2023-05-18T05:32:19.760Z,46.22
2023-05-18T05:32:51.248Z,45.88
2023-05-18T05:33:22.727Z,46.09
2023-05-18T05:33:54.172Z,46.23
2023-05-18T05:34:25.622Z,46.35
2023-05-18T05:34:57.066Z,46.07
2023-05-18T05:35:29.571Z,46.38
2023-05-18T05:36:02.916Z,46.58
2023-05-18T05:36:34.569Z,46.37
2023-05-18T05:37:06.043Z,46.47
2023-05-18T05:37:37.500Z,46.03
2023-05-18T05:38:08.966Z,46.21
2023-05-18T05:38:40.416Z,46.21
2023-05-18T05:39:11.862Z,46.26
2023-05-18T05:39:43.311Z,46.18
2023-05-18T05:40:14.775Z,45.90
2023-05-18T05:40:46.230Z,46.17
2023-05-18T05:41:17.707Z,46.15
2023-05-18T05:41:49.144Z,46.04
2023-05-18T05:42:20.588Z,46.00
2023-05-18T05:42:52.026Z,46.11
2023-05-18T05:43:23.455Z,46.17
2023-05-18T05:43:54.899Z,45.85
2023-05-18T05:44:26.347Z,46.33
2023-05-18T05:44:57.779Z,46.02
2023-05-18T05:45:29.359Z,45.78
2023-05-18T05:46:00.904Z,45.99
2023-05-18T05:46:32.417Z,46.01
2023-05-18T05:47:03.945Z,46.23
2023-05-18T05:47:35.449Z,45.96
2023-05-18T05:48:06.965Z,46.09
2023-05-18T05:48:38.449Z,46.53
2023-05-18T05:49:09.894Z,46.54
2023-05-18T05:49:41.337Z,46.59
2023-05-18T05:50:12.773Z,46.49
2023-05-18T05:50:44.225Z,46.15
2023-05-18T05:51:15.682Z,46.65
2023-05-18T05:51:47.146Z,46.07
2023-05-18T05:52:18.600Z,46.39
2023-05-18T05:52:50.069Z,46.63
2023-05-18T05:53:21.507Z,46.47
2023-05-18T05:53:52.952Z,46.40
2023-05-18T05:54:24.403Z,46.65
2023-05-18T05:54:55.859Z,45.96
2023-05-18T05:55:27.306Z,46.33
2023-05-18T05:55:58.761Z,46.39
2023-05-18T05:56:30.196Z,46.40
2023-05-18T05:57:01.650Z,46.36
2023-05-18T05:57:33.107Z,46.65
2023-05-18T05:58:04.548Z,47.01
2023-05-18T05:58:35.995Z,46.91
2023-05-18T05:59:07.426Z,46.34
2023-05-18T05:59:38.859Z,46.84
2023-05-18T06:00:10.280Z,46.51
2023-05-18T06:00:41.722Z,46.87
2023-05-18T06:01:13.220Z,46.84
2023-05-18T06:01:44.709Z,46.56
2023-05-18T06:02:16.216Z,46.85
2023-05-18T06:02:47.767Z,47.05
2023-05-18T06:03:19.281Z,46.74
2023-05-18T06:03:50.792Z,46.95
2023-05-18T06:04:22.367Z,46.62
2023-05-18T06:04:53.975Z,47.17
2023-05-18T06:05:25.411Z,47.16
2023-05-18T06:05:56.846Z,47.52
2023-05-18T06:06:28.314Z,47.26
2023-05-18T06:06:59.755Z,47.47
2023-05-18T06:07:31.232Z,47.07
2023-05-18T06:08:02.681Z,47.42
2023-05-18T06:08:34.115Z,47.16
2023-05-18T06:09:05.546Z,47.06
2023-05-18T06:09:36.986Z,47.06
2023-05-18T06:10:08.461Z,47.05
2023-05-18T06:10:39.911Z,47.13
2023-05-18T06:11:11.649Z,47.35
2023-05-18T06:11:43.183Z,47.48
2023-05-18T06:12:14.632Z,47.49
2023-05-18T06:12:46.088Z,47.70
2023-05-18T06:13:17.529Z,47.47
2023-05-18T06:13:48.987Z,47.29
2023-05-18T06:14:20.416Z,47.29
2023-05-18T06:14:51.854Z,47.53
2023-05-18T06:15:23.288Z,47.50
2023-05-18T06:15:54.714Z,47.43
2023-05-18T06:16:26.180Z,47.67
2023-05-18T06:16:57.762Z,47.57
2023-05-18T06:17:29.339Z,47.59
2023-05-18T06:18:00.839Z,47.76
2023-05-18T06:18:32.326Z,47.65
2023-05-18T06:19:03.806Z,47.43
2023-05-18T06:19:35.254Z,47.38
2023-05-18T06:20:06.693Z,47.67
2023-05-18T06:20:38.139Z,47.70
2023-05-18T06:21:09.577Z,47.29
2023-05-18T06:21:41.012Z,47.29
2023-05-18T06:22:12.497Z,47.34
2023-05-18T06:22:43.936Z,47.63
2023-05-18T06:23:15.363Z,47.28
2023-05-18T06:23:46.853Z,47.57
2023-05-18T06:24:18.290Z,47.97
2023-05-18T06:24:49.768Z,47.28
2023-05-18T06:25:21.231Z,47.71
2023-05-18T06:25:52.666Z,47.31
2023-05-18T06:26:24.123Z,47.67
2023-05-18T06:26:55.638Z,47.17
2023-05-18T06:27:27.114Z,47.92
2023-05-18T06:27:58.550Z,47.49
2023-05-18T06:28:29.991Z,47.56
2023-05-18T06:29:01.436Z,47.45
2023-05-18T06:29:32.884Z,47.29
2023-05-18T06:30:04.347Z,47.47
2023-05-18T06:30:35.783Z,47.41
2023-05-18T06:31:07.222Z,47.77
2023-05-18T06:31:38.724Z,47.63
2023-05-18T06:32:10.247Z,47.66
2023-05-18T06:32:41.737Z,47.54
2023-05-18T06:33:13.205Z,47.50
2023-05-18T06:33:44.672Z,47.67
2023-05-18T06:34:16.131Z,47.25
2023-05-18T06:34:47.584Z,47.39
2023-05-18T06:35:19.033Z,47.57
2023-05-18T06:35:50.469Z,47.76
2023-05-18T06:36:21.908Z,47.44
2023-05-18T06:36:53.376Z,47.43
2023-05-18T06:37:24.832Z,47.49
2023-05-18T06:37:56.298Z,47.48
2023-05-18T06:38:27.724Z,47.67
2023-05-18T06:38:59.168Z,47.49
2023-05-18T06:39:30.610Z,47.81
2023-05-18T06:40:02.092Z,47.14
2023-05-18T06:40:33.526Z,47.14
2023-05-18T06:41:04.976Z,47.57
2023-05-18T06:41:36.425Z,47.42
2023-05-18T06:42:07.857Z,47.80
2023-05-18T06:42:39.311Z,47.43
2023-05-18T06:43:10.759Z,47.41
2023-05-18T06:43:42.208Z,47.79
2023-05-18T06:44:13.653Z,47.50
2023-05-18T06:44:45.100Z,47.25
2023-05-18T06:45:16.541Z,47.04